PHKAY ENGS-ENOP
Flight info
| Callsign | PHKAY |
|---|---|
| Flight time | 1h 0m |
| Altitude | 3500 |
| Route | VFR |
| Aircraft | BE36/L-VGDW/C |
Departure
| Time | 2026-05-06 18:02 |
|---|---|
| Airport | Snåsa Airfield Grønøra (ENGS) |
Arrival
| Time | 2026-05-06 19:03 |
|---|---|
| Airport | Fagerhaug Airfield (ENOP) |
| Time | Latitude | Longitude | Altitude | Speed | Heading |
|---|---|---|---|---|---|
| 2026-05-06 17:53 | 64.18459 | 12.17513 | 90 ft | 0 kts | 270° |
| 2026-05-06 18:00 | 64.18466 | 12.17490 | 88 ft | 2 kts | 322° |
| 2026-05-06 18:01 | 64.18473 | 12.17466 | 87 ft | 0 kts | 234° |
| 2026-05-06 18:01 | 64.18472 | 12.17465 | 87 ft | 0 kts | 226° |
| 2026-05-06 18:01 | 64.18333 | 12.17113 | 91 ft | 59 kts | 228° |
| 2026-05-06 18:02 | 64.18197 | 12.16154 | 306 ft | 63 kts | 254° |
| 2026-05-06 18:02 | 64.18182 | 12.15142 | 533 ft | 65 kts | 265° |
| 2026-05-06 18:02 | 64.18237 | 12.14056 | 760 ft | 70 kts | 277° |
| 2026-05-06 18:02 | 64.18398 | 12.13010 | 999 ft | 76 kts | 283° |
| 2026-05-06 18:03 | 64.18613 | 12.11724 | 1231 ft | 90 kts | 287° |
| 2026-05-06 18:03 | 64.18870 | 12.10260 | 1308 ft | 115 kts | 284° |
| 2026-05-06 18:03 | 64.19031 | 12.08254 | 1256 ft | 138 kts | 258° |
| 2026-05-06 18:03 | 64.18665 | 12.06164 | 1260 ft | 143 kts | 240° |
| 2026-05-06 18:04 | 64.18331 | 12.04984 | 1258 ft | 144 kts | 231° |
| 2026-05-06 18:04 | 64.17695 | 12.03170 | 1256 ft | 145 kts | 227° |
| 2026-05-06 18:04 | 64.17003 | 12.01412 | 1255 ft | 146 kts | 223° |
| 2026-05-06 18:04 | 64.16249 | 11.99753 | 1311 ft | 143 kts | 223° |
| 2026-05-06 18:05 | 64.15510 | 11.98140 | 1380 ft | 138 kts | 223° |
| 2026-05-06 18:05 | 64.14913 | 11.96416 | 1443 ft | 131 kts | 239° |
| 2026-05-06 18:05 | 64.14528 | 11.94534 | 1513 ft | 127 kts | 244° |
| 2026-05-06 18:05 | 64.14183 | 11.92717 | 1582 ft | 124 kts | 244° |
| 2026-05-06 18:06 | 64.13845 | 11.90919 | 1653 ft | 121 kts | 244° |
| 2026-05-06 18:06 | 64.13510 | 11.89133 | 1725 ft | 119 kts | 244° |
| 2026-05-06 18:06 | 64.13188 | 11.87410 | 1797 ft | 118 kts | 244° |
| 2026-05-06 18:06 | 64.12864 | 11.85678 | 1869 ft | 118 kts | 244° |
| 2026-05-06 18:07 | 64.12540 | 11.83944 | 1942 ft | 117 kts | 244° |
| 2026-05-06 18:07 | 64.12224 | 11.82246 | 2010 ft | 117 kts | 244° |
| 2026-05-06 18:07 | 64.11899 | 11.80508 | 2028 ft | 120 kts | 244° |
| 2026-05-06 18:07 | 64.11561 | 11.78709 | 2030 ft | 124 kts | 244° |
| 2026-05-06 18:08 | 64.11213 | 11.76860 | 2030 ft | 126 kts | 244° |
| 2026-05-06 18:08 | 64.10947 | 11.74894 | 2030 ft | 130 kts | 258° |
| 2026-05-06 18:08 | 64.10799 | 11.72675 | 2036 ft | 146 kts | 258° |
| 2026-05-06 18:08 | 64.10613 | 11.70233 | 2035 ft | 158 kts | 257° |
| 2026-05-06 18:09 | 64.10416 | 11.67698 | 2033 ft | 165 kts | 257° |
| 2026-05-06 18:09 | 64.10206 | 11.65040 | 2031 ft | 168 kts | 257° |
| 2026-05-06 18:09 | 64.09719 | 11.62611 | 2020 ft | 167 kts | 221° |
| 2026-05-06 18:09 | 64.08600 | 11.61729 | 2031 ft | 168 kts | 186° |
| 2026-05-06 18:10 | 64.07376 | 11.61723 | 1967 ft | 172 kts | 174° |
| 2026-05-06 18:10 | 64.06186 | 11.62417 | 1966 ft | 172 kts | 167° |
| 2026-05-06 18:10 | 64.05020 | 11.63071 | 1964 ft | 171 kts | 172° |
| 2026-05-06 18:10 | 64.03838 | 11.63194 | 1943 ft | 169 kts | 198° |
| 2026-05-06 18:11 | 64.02959 | 11.61398 | 1960 ft | 168 kts | 238° |
| 2026-05-06 18:11 | 64.02417 | 11.58987 | 1964 ft | 169 kts | 242° |
| 2026-05-06 18:11 | 64.01913 | 11.56584 | 1964 ft | 169 kts | 243° |
| 2026-05-06 18:11 | 64.01399 | 11.54126 | 1964 ft | 169 kts | 242° |
| 2026-05-06 18:12 | 64.00809 | 11.51760 | 1964 ft | 168 kts | 238° |
| 2026-05-06 18:12 | 64.00205 | 11.49438 | 1964 ft | 167 kts | 238° |
| 2026-05-06 18:12 | 63.99624 | 11.47202 | 1961 ft | 161 kts | 238° |
| 2026-05-06 18:12 | 63.99056 | 11.45019 | 1962 ft | 157 kts | 238° |
| 2026-05-06 18:13 | 63.98502 | 11.42893 | 1963 ft | 154 kts | 238° |
| 2026-05-06 18:13 | 63.97968 | 11.40762 | 1961 ft | 150 kts | 241° |
| 2026-05-06 18:13 | 63.97504 | 11.38654 | 1961 ft | 145 kts | 242° |
| 2026-05-06 18:13 | 63.97045 | 11.36564 | 1962 ft | 142 kts | 242° |
| 2026-05-06 18:14 | 63.96575 | 11.34421 | 1963 ft | 140 kts | 241° |
| 2026-05-06 18:14 | 63.96107 | 11.32311 | 1963 ft | 137 kts | 241° |
| 2026-05-06 18:14 | 63.95673 | 11.30369 | 1963 ft | 135 kts | 241° |
| 2026-05-06 18:14 | 63.95248 | 11.28431 | 1964 ft | 134 kts | 241° |
| 2026-05-06 18:15 | 63.94835 | 11.26500 | 1964 ft | 133 kts | 243° |
| 2026-05-06 18:15 | 63.94438 | 11.24568 | 1965 ft | 133 kts | 243° |
| 2026-05-06 18:15 | 63.94009 | 11.22534 | 1963 ft | 133 kts | 243° |
| 2026-05-06 18:15 | 63.93629 | 11.20610 | 1965 ft | 132 kts | 245° |
| 2026-05-06 18:16 | 63.93251 | 11.18707 | 1964 ft | 131 kts | 244° |
| 2026-05-06 18:16 | 63.92822 | 11.16884 | 1965 ft | 130 kts | 240° |
| 2026-05-06 18:16 | 63.92370 | 11.15026 | 1965 ft | 130 kts | 240° |
| 2026-05-06 18:16 | 63.91918 | 11.13218 | 1965 ft | 130 kts | 240° |
| 2026-05-06 18:17 | 63.91462 | 11.11378 | 1965 ft | 130 kts | 240° |
| 2026-05-06 18:17 | 63.91013 | 11.09577 | 1965 ft | 130 kts | 240° |
| 2026-05-06 18:17 | 63.90571 | 11.07777 | 1965 ft | 130 kts | 240° |
| 2026-05-06 18:17 | 63.90088 | 11.05989 | 1965 ft | 130 kts | 238° |
| 2026-05-06 18:18 | 63.89305 | 11.03207 | 1966 ft | 129 kts | 237° |
| 2026-05-06 18:18 | 63.88774 | 11.01340 | 1966 ft | 129 kts | 237° |
| 2026-05-06 18:18 | 63.88245 | 10.99444 | 1966 ft | 130 kts | 237° |
| 2026-05-06 18:18 | 63.87793 | 10.97586 | 1966 ft | 130 kts | 242° |
| 2026-05-06 18:19 | 63.87385 | 10.95729 | 1966 ft | 129 kts | 242° |
| 2026-05-06 18:19 | 63.86987 | 10.93887 | 1967 ft | 129 kts | 242° |
| 2026-05-06 18:19 | 63.86585 | 10.92041 | 1967 ft | 129 kts | 244° |
| 2026-05-06 18:19 | 63.86172 | 10.90204 | 1966 ft | 129 kts | 243° |
| 2026-05-06 18:20 | 63.85754 | 10.88394 | 1966 ft | 128 kts | 242° |
| 2026-05-06 18:20 | 63.85339 | 10.86606 | 1966 ft | 128 kts | 242° |
| 2026-05-06 18:20 | 63.84915 | 10.84790 | 1966 ft | 127 kts | 242° |
| 2026-05-06 18:20 | 63.84494 | 10.82992 | 1966 ft | 127 kts | 241° |
| 2026-05-06 18:21 | 63.84098 | 10.81185 | 1966 ft | 127 kts | 244° |
| 2026-05-06 18:21 | 63.83679 | 10.79367 | 1966 ft | 127 kts | 242° |
| 2026-05-06 18:21 | 63.83257 | 10.77523 | 1966 ft | 127 kts | 243° |
| 2026-05-06 18:21 | 63.82802 | 10.75630 | 1968 ft | 127 kts | 242° |
| 2026-05-06 18:22 | 63.82390 | 10.73864 | 1966 ft | 127 kts | 242° |
| 2026-05-06 18:22 | 63.81966 | 10.72058 | 1965 ft | 127 kts | 240° |
| 2026-05-06 18:22 | 63.81434 | 10.70235 | 2025 ft | 123 kts | 237° |
| 2026-05-06 18:22 | 63.80949 | 10.68679 | 2144 ft | 115 kts | 235° |
| 2026-05-06 18:23 | 63.80476 | 10.67176 | 2268 ft | 109 kts | 234° |
| 2026-05-06 18:23 | 63.80026 | 10.65775 | 2391 ft | 105 kts | 233° |
| 2026-05-06 18:23 | 63.79594 | 10.64441 | 2456 ft | 106 kts | 234° |
| 2026-05-06 18:23 | 63.79123 | 10.63044 | 2467 ft | 111 kts | 234° |
| 2026-05-06 18:24 | 63.78601 | 10.61502 | 2471 ft | 121 kts | 234° |
| 2026-05-06 18:24 | 63.78056 | 10.59880 | 2470 ft | 127 kts | 234° |
| 2026-05-06 18:24 | 63.77483 | 10.58170 | 2469 ft | 133 kts | 233° |
| 2026-05-06 18:24 | 63.76917 | 10.56407 | 2469 ft | 137 kts | 233° |
| 2026-05-06 18:25 | 63.76343 | 10.54663 | 2467 ft | 139 kts | 233° |
| 2026-05-06 18:25 | 63.75758 | 10.52833 | 2467 ft | 140 kts | 234° |
| 2026-05-06 18:25 | 63.75186 | 10.51000 | 2466 ft | 143 kts | 234° |
| 2026-05-06 18:25 | 63.74609 | 10.49152 | 2467 ft | 146 kts | 234° |
| 2026-05-06 18:26 | 63.73998 | 10.47238 | 2466 ft | 148 kts | 234° |
| 2026-05-06 18:26 | 63.73362 | 10.45250 | 2493 ft | 148 kts | 234° |
| 2026-05-06 18:26 | 63.72756 | 10.43339 | 2566 ft | 145 kts | 234° |
| 2026-05-06 18:26 | 63.72176 | 10.41471 | 2639 ft | 143 kts | 236° |
| 2026-05-06 18:27 | 63.71568 | 10.39597 | 2680 ft | 144 kts | 235° |
| 2026-05-06 18:27 | 63.70933 | 10.37734 | 2731 ft | 143 kts | 232° |
| 2026-05-06 18:27 | 63.70285 | 10.35974 | 2761 ft | 145 kts | 231° |
| 2026-05-06 18:27 | 63.69616 | 10.34166 | 2766 ft | 147 kts | 231° |
| 2026-05-06 18:28 | 63.68944 | 10.32358 | 2766 ft | 149 kts | 231° |
| 2026-05-06 18:28 | 63.68276 | 10.30540 | 2767 ft | 150 kts | 230° |
| 2026-05-06 18:28 | 63.67620 | 10.28666 | 2767 ft | 150 kts | 232° |
| 2026-05-06 18:28 | 63.66940 | 10.26812 | 2767 ft | 150 kts | 230° |
| 2026-05-06 18:29 | 63.66262 | 10.24916 | 2766 ft | 150 kts | 231° |
| 2026-05-06 18:29 | 63.65567 | 10.22973 | 2766 ft | 149 kts | 231° |
| 2026-05-06 18:29 | 63.64907 | 10.21129 | 2766 ft | 149 kts | 233° |
| 2026-05-06 18:29 | 63.64267 | 10.19224 | 2767 ft | 150 kts | 233° |
| 2026-05-06 18:30 | 63.63605 | 10.17258 | 2768 ft | 153 kts | 233° |
| 2026-05-06 18:30 | 63.62949 | 10.15279 | 2767 ft | 154 kts | 234° |
| 2026-05-06 18:30 | 63.62244 | 10.13161 | 2767 ft | 156 kts | 234° |
| 2026-05-06 18:30 | 63.61572 | 10.11163 | 2767 ft | 157 kts | 234° |
| 2026-05-06 18:31 | 63.60894 | 10.09160 | 2767 ft | 158 kts | 235° |
| 2026-05-06 18:31 | 63.60194 | 10.07116 | 2766 ft | 159 kts | 234° |
| 2026-05-06 18:31 | 63.59501 | 10.05070 | 2766 ft | 159 kts | 236° |
| 2026-05-06 18:31 | 63.58886 | 10.02945 | 2766 ft | 158 kts | 240° |
| 2026-05-06 18:32 | 63.58314 | 10.00764 | 2766 ft | 158 kts | 242° |
| 2026-05-06 18:32 | 63.57498 | 9.99051 | 2755 ft | 166 kts | 204° |
| 2026-05-06 18:32 | 63.56314 | 9.99245 | 2767 ft | 177 kts | 166° |
| 2026-05-06 18:32 | 63.55120 | 10.00443 | 2766 ft | 180 kts | 156° |
| 2026-05-06 18:33 | 63.53998 | 10.01892 | 2766 ft | 180 kts | 157° |
| 2026-05-06 18:33 | 63.52905 | 10.03239 | 2766 ft | 180 kts | 157° |
| 2026-05-06 18:33 | 63.51766 | 10.04521 | 2766 ft | 179 kts | 160° |
| 2026-05-06 18:33 | 63.50557 | 10.05839 | 2766 ft | 179 kts | 160° |
| 2026-05-06 18:34 | 63.49369 | 10.07086 | 2766 ft | 179 kts | 161° |
| 2026-05-06 18:34 | 63.48204 | 10.08297 | 2766 ft | 179 kts | 161° |
| 2026-05-06 18:34 | 63.46981 | 10.09549 | 2766 ft | 179 kts | 162° |
| 2026-05-06 18:34 | 63.45686 | 10.10769 | 2766 ft | 178 kts | 163° |
| 2026-05-06 18:35 | 63.44484 | 10.11891 | 2793 ft | 177 kts | 163° |
| 2026-05-06 18:35 | 63.43320 | 10.12977 | 2843 ft | 174 kts | 163° |
| 2026-05-06 18:35 | 63.42165 | 10.14053 | 2894 ft | 172 kts | 163° |
| 2026-05-06 18:35 | 63.41029 | 10.15110 | 2944 ft | 172 kts | 163° |
| 2026-05-06 18:36 | 63.39905 | 10.16151 | 2963 ft | 173 kts | 163° |
| 2026-05-06 18:36 | 63.38747 | 10.17116 | 2966 ft | 174 kts | 166° |
| 2026-05-06 18:36 | 63.37532 | 10.18125 | 2965 ft | 176 kts | 162° |
| 2026-05-06 18:36 | 63.36407 | 10.19420 | 2966 ft | 178 kts | 153° |
| 2026-05-06 18:37 | 63.35307 | 10.20936 | 2966 ft | 178 kts | 153° |
| 2026-05-06 18:37 | 63.34235 | 10.22417 | 2963 ft | 178 kts | 153° |
| 2026-05-06 18:37 | 63.33099 | 10.23904 | 2963 ft | 176 kts | 157° |
| 2026-05-06 18:37 | 63.31924 | 10.25195 | 2965 ft | 176 kts | 160° |
| 2026-05-06 18:38 | 63.30700 | 10.26199 | 2966 ft | 174 kts | 167° |
| 2026-05-06 18:38 | 63.29518 | 10.26979 | 2968 ft | 174 kts | 167° |
| 2026-05-06 18:38 | 63.28350 | 10.27720 | 2964 ft | 173 kts | 168° |
| 2026-05-06 18:38 | 63.27179 | 10.28466 | 2966 ft | 172 kts | 168° |
| 2026-05-06 18:39 | 63.26010 | 10.29206 | 2967 ft | 173 kts | 168° |
| 2026-05-06 18:39 | 63.24769 | 10.29764 | 2963 ft | 171 kts | 173° |
| 2026-05-06 18:39 | 63.23592 | 10.30255 | 2965 ft | 171 kts | 173° |
| 2026-05-06 18:40 | 63.21223 | 10.31221 | 2959 ft | 161 kts | 176° |
| 2026-05-06 18:40 | 63.20118 | 10.31401 | 2959 ft | 150 kts | 184° |
| 2026-05-06 18:40 | 63.19055 | 10.31354 | 2929 ft | 142 kts | 185° |
| 2026-05-06 18:40 | 63.18030 | 10.31290 | 2791 ft | 138 kts | 185° |
| 2026-05-06 18:41 | 63.17054 | 10.31107 | 2655 ft | 134 kts | 196° |
| 2026-05-06 18:41 | 63.16146 | 10.30492 | 2521 ft | 128 kts | 201° |
| 2026-05-06 18:41 | 63.15284 | 10.29803 | 2385 ft | 124 kts | 203° |
| 2026-05-06 18:41 | 63.14474 | 10.29179 | 2256 ft | 122 kts | 202° |
| 2026-05-06 18:42 | 63.13686 | 10.28514 | 2122 ft | 115 kts | 211° |
| 2026-05-06 18:42 | 63.13017 | 10.27537 | 1997 ft | 109 kts | 217° |
| 2026-05-06 18:42 | 63.12401 | 10.26605 | 1964 ft | 98 kts | 217° |
| 2026-05-06 18:42 | 63.11868 | 10.25807 | 1957 ft | 87 kts | 217° |
| 2026-05-06 18:43 | 63.11414 | 10.25154 | 1961 ft | 81 kts | 216° |
| 2026-05-06 18:43 | 63.11169 | 10.24793 | 1963 ft | 83 kts | 217° |
| 2026-05-06 18:43 | 63.10664 | 10.24107 | 1965 ft | 87 kts | 205° |
| 2026-05-06 18:43 | 63.10012 | 10.24033 | 1966 ft | 95 kts | 176° |
| 2026-05-06 18:44 | 63.09368 | 10.24579 | 1968 ft | 100 kts | 161° |
| 2026-05-06 18:44 | 63.08709 | 10.25264 | 1968 ft | 103 kts | 161° |
| 2026-05-06 18:44 | 63.08059 | 10.25940 | 1967 ft | 104 kts | 161° |
| 2026-05-06 18:44 | 63.07381 | 10.26639 | 1964 ft | 104 kts | 161° |
| 2026-05-06 18:45 | 63.06697 | 10.27341 | 1965 ft | 105 kts | 161° |
| 2026-05-06 18:45 | 63.06032 | 10.28019 | 1966 ft | 105 kts | 161° |
| 2026-05-06 18:45 | 63.05351 | 10.28708 | 1965 ft | 106 kts | 161° |
| 2026-05-06 18:45 | 63.04651 | 10.29379 | 1989 ft | 101 kts | 165° |
| 2026-05-06 18:46 | 63.03950 | 10.29231 | 1988 ft | 98 kts | 208° |
| 2026-05-06 18:46 | 63.03374 | 10.28410 | 1990 ft | 97 kts | 223° |
| 2026-05-06 18:46 | 63.03004 | 10.27131 | 1992 ft | 99 kts | 236° |
| 2026-05-06 18:46 | 63.02645 | 10.25811 | 1990 ft | 96 kts | 228° |
| 2026-05-06 18:47 | 63.02137 | 10.24874 | 1991 ft | 95 kts | 214° |
| 2026-05-06 18:47 | 63.01508 | 10.24355 | 1989 ft | 97 kts | 196° |
| 2026-05-06 18:47 | 63.00828 | 10.24174 | 1993 ft | 98 kts | 189° |
| 2026-05-06 18:47 | 63.00161 | 10.23943 | 1992 ft | 97 kts | 191° |
| 2026-05-06 18:48 | 62.99495 | 10.23697 | 1992 ft | 96 kts | 190° |
| 2026-05-06 18:48 | 62.98838 | 10.23437 | 1989 ft | 94 kts | 192° |
| 2026-05-06 18:48 | 62.98246 | 10.22839 | 1987 ft | 92 kts | 218° |
| 2026-05-06 18:48 | 62.97796 | 10.21812 | 1992 ft | 92 kts | 229° |
| 2026-05-06 18:49 | 62.97397 | 10.20721 | 1991 ft | 92 kts | 229° |
| 2026-05-06 18:49 | 62.96999 | 10.19580 | 1992 ft | 92 kts | 230° |
| 2026-05-06 18:49 | 62.96600 | 10.18468 | 1991 ft | 92 kts | 230° |
| 2026-05-06 18:49 | 62.96048 | 10.17777 | 1988 ft | 93 kts | 191° |
| 2026-05-06 18:50 | 62.95384 | 10.17949 | 1975 ft | 96 kts | 168° |
| 2026-05-06 18:50 | 62.94756 | 10.18466 | 1963 ft | 95 kts | 166° |
| 2026-05-06 18:50 | 62.94115 | 10.19010 | 1974 ft | 98 kts | 174° |
| 2026-05-06 18:50 | 62.93448 | 10.18837 | 1991 ft | 98 kts | 202° |
| 2026-05-06 18:51 | 62.92854 | 10.18042 | 2000 ft | 102 kts | 219° |
| 2026-05-06 18:51 | 62.92371 | 10.16834 | 1987 ft | 105 kts | 241° |
| 2026-05-06 18:51 | 62.92005 | 10.15404 | 2002 ft | 109 kts | 242° |
| 2026-05-06 18:51 | 62.91611 | 10.13935 | 1990 ft | 113 kts | 232° |
| 2026-05-06 18:52 | 62.91061 | 10.12634 | 1978 ft | 113 kts | 229° |
| 2026-05-06 18:52 | 62.90472 | 10.11335 | 1982 ft | 113 kts | 228° |
| 2026-05-06 18:52 | 62.89871 | 10.10038 | 1978 ft | 113 kts | 227° |
| 2026-05-06 18:52 | 62.89045 | 10.08244 | 2047 ft | 107 kts | 228° |
| 2026-05-06 18:53 | 62.88505 | 10.07198 | 2268 ft | 92 kts | 217° |
| 2026-05-06 18:53 | 62.87970 | 10.06578 | 2459 ft | 85 kts | 213° |
| 2026-05-06 18:53 | 62.87406 | 10.05961 | 2480 ft | 94 kts | 213° |
| 2026-05-06 18:53 | 62.86794 | 10.05280 | 2504 ft | 101 kts | 213° |
| 2026-05-06 18:54 | 62.86176 | 10.04591 | 2627 ft | 96 kts | 213° |
| 2026-05-06 18:54 | 62.85586 | 10.03942 | 2748 ft | 93 kts | 213° |
| 2026-05-06 18:54 | 62.85015 | 10.03326 | 2871 ft | 90 kts | 212° |
| 2026-05-06 18:54 | 62.84386 | 10.02992 | 2972 ft | 94 kts | 196° |
| 2026-05-06 18:55 | 62.83680 | 10.02789 | 2997 ft | 105 kts | 195° |
| 2026-05-06 18:55 | 62.82910 | 10.02557 | 3000 ft | 115 kts | 195° |
| 2026-05-06 18:55 | 62.82088 | 10.02295 | 2998 ft | 121 kts | 195° |
| 2026-05-06 18:55 | 62.81221 | 10.02008 | 2996 ft | 125 kts | 195° |
| 2026-05-06 18:56 | 62.80338 | 10.01711 | 2994 ft | 126 kts | 195° |
| 2026-05-06 18:56 | 62.79433 | 10.01404 | 2994 ft | 127 kts | 195° |
| 2026-05-06 18:56 | 62.78514 | 10.01095 | 2991 ft | 123 kts | 195° |
| 2026-05-06 18:56 | 62.77675 | 10.00822 | 2999 ft | 119 kts | 195° |
| 2026-05-06 18:57 | 62.76864 | 10.00568 | 3003 ft | 111 kts | 195° |
| 2026-05-06 18:57 | 62.76114 | 10.00353 | 3008 ft | 103 kts | 195° |
| 2026-05-06 18:57 | 62.75411 | 10.00166 | 2992 ft | 96 kts | 195° |
| 2026-05-06 18:57 | 62.74761 | 10.00010 | 2986 ft | 88 kts | 195° |
| 2026-05-06 18:58 | 62.74175 | 9.99805 | 2985 ft | 80 kts | 201° |
| 2026-05-06 18:58 | 62.73632 | 9.99525 | 2993 ft | 79 kts | 204° |
| 2026-05-06 18:58 | 62.73090 | 9.99214 | 2996 ft | 82 kts | 204° |
| 2026-05-06 18:58 | 62.72500 | 9.98856 | 2924 ft | 92 kts | 204° |
| 2026-05-06 18:59 | 62.71853 | 9.98381 | 2812 ft | 100 kts | 208° |
| 2026-05-06 18:59 | 62.71203 | 9.97800 | 2693 ft | 102 kts | 209° |
| 2026-05-06 18:59 | 62.70539 | 9.97195 | 2559 ft | 101 kts | 209° |
| 2026-05-06 18:59 | 62.69889 | 9.96550 | 2433 ft | 100 kts | 213° |
| 2026-05-06 19:00 | 62.69287 | 9.95785 | 2308 ft | 98 kts | 218° |
| 2026-05-06 19:00 | 62.68732 | 9.95003 | 2318 ft | 92 kts | 218° |
| 2026-05-06 19:00 | 62.68167 | 9.94193 | 2334 ft | 96 kts | 218° |
| 2026-05-06 19:00 | 62.67571 | 9.93329 | 2326 ft | 100 kts | 218° |
| 2026-05-06 19:01 | 62.66991 | 9.92455 | 2333 ft | 99 kts | 221° |
| 2026-05-06 19:01 | 62.66450 | 9.91293 | 2307 ft | 99 kts | 236° |
| 2026-05-06 19:01 | 62.66129 | 9.89949 | 2287 ft | 97 kts | 245° |
| 2026-05-06 19:01 | 62.65840 | 9.88963 | 2308 ft | 56 kts | 237° |
| 2026-05-06 19:02 | 62.65643 | 9.88224 | 2103 ft | 56 kts | 248° |
| 2026-05-06 19:02 | 62.65506 | 9.87472 | 2054 ft | 53 kts | 251° |
| 2026-05-06 19:02 | 62.65377 | 9.86694 | 1961 ft | 55 kts | 251° |
| 2026-05-06 19:02 | 62.65257 | 9.85942 | 1826 ft | 50 kts | 252° |
| 2026-05-06 19:03 | 62.65160 | 9.85331 | 1824 ft | 30 kts | 251° |
| 2026-05-06 19:03 | 62.65148 | 9.85227 | 1823 ft | 3 kts | 68° |
| 2026-05-06 19:03 | 62.65168 | 9.85402 | 1823 ft | 5 kts | 114° |
| 2026-05-06 19:03 | 62.65139 | 9.85428 | 1821 ft | 0 kts | 165° |
| 2026-05-06 19:04 | 62.65132 | 9.85432 | 1821 ft | 3 kts | 166° |
| 2026-05-06 19:04 | 62.65128 | 9.85434 | 1821 ft | 0 kts | 167° |
| 2026-05-06 19:04 | 62.65104 | 9.85449 | 1820 ft | 6 kts | 165° |
| 2026-05-06 19:05 | 62.65074 | 9.85468 | 1819 ft | 1 kts | 164° |
| 2026-05-06 19:05 | 62.65025 | 9.85484 | 1817 ft | 4 kts | 161° |
| 2026-05-06 19:05 | 62.65016 | 9.85498 | 1817 ft | 2 kts | 78° |